ADDS METAR Data INFO
IDs: Format: Raw Decoded Include TAF

Data at: 0250 UTC 21 Jan 2018

KDTL 210235Z AUTO 00000KT 5SM BR CLR M02/M03 A2990 RMK AO2
KDTL 210215Z AUTO 21003KT 2 1/2SM BR CLR M03/M03 A2991 RMK AO2 VIS 1 1/4V5
KDTL 210155Z AUTO 00000KT 10SM CLR M02/M02 A2991 RMK AO2
KDTL 210135Z AUTO 23003KT 10SM CLR M01/M02 A2991 RMK AO2
KDTL 210115Z AUTO 00000KT 10SM CLR M02/M02 A2991 RMK AO2
KDTL 210055Z AUTO 23003KT 10SM CLR M02/M02 A2990 RMK AO2
KDTL 210035Z AUTO 00000KT 10SM CLR M01/M02 A2990 RMK AO2
KDTL 210015Z AUTO 21003KT 10SM CLR M01/M02 A2990 RMK AO2
KDTL 202355Z AUTO 00000KT 10SM CLR 00/M02 A2990 RMK AO2
KDTL 202335Z AUTO 25003KT 10SM CLR 00/M02 A2990 RMK AO2
KDTL 202315Z AUTO 24003KT 10SM CLR 01/M01 A2988 RMK AO2
KDTL 202255Z AUTO 00000KT 10SM CLR 01/M01 A2987 RMK AO2
KDTL 202235Z AUTO 28003KT 10SM CLR 02/M01 A2987 RMK AO2
KDTL 202215Z AUTO 28004KT 10SM CLR 02/M01 A2987 RMK AO2
KDTL 202155Z AUTO 26005KT 10SM CLR 02/M01 A2987 RMK AO2
KDTL 202135Z AUTO 27005KT 10SM CLR 02/M01 A2986 RMK AO2
KDTL 202115Z AUTO 28008KT 10SM CLR 02/M01 A2985 RMK AO2
KDTL 202055Z AUTO 27007KT 10SM CLR 02/M01 A2984 RMK AO2
KDTL 202035Z AUTO 29008KT 10SM CLR 02/M01 A2984 RMK AO2
KDTL 202015Z AUTO 28007KT 10SM CLR 02/M01 A2983 RMK AO2
KDTL 201955Z AUTO 30008KT 10SM CLR 02/M01 A2982 RMK AO2
KDTL 201935Z AUTO 28008KT 10SM CLR 02/M01 A2983 RMK AO2
KDTL 201915Z AUTO 26005KT 10SM CLR 02/M01 A2982 RMK AO2
KDTL 201855Z AUTO 27003KT 10SM CLR 01/M02 A2983 RMK AO2
KDTL 201835Z AUTO 24004KT 10SM CLR 00/M02 A2983 RMK AO2
KDTL 201815Z AUTO 27005KT 10SM CLR 00/M02 A2983 RMK AO2
KDTL 201755Z AUTO 00000KT 10SM CLR M01/M02 A2984 RMK AO2
KDTL 201735Z AUTO 22004KT 10SM CLR M01/M02 A2984 RMK AO2
KDTL 201715Z AUTO 20003KT 10SM CLR M01/M02 A2984 RMK AO2
KDTL 201655Z AUTO 20004KT 10SM CLR M02/M02 A2984 RMK AO2
KDTL 201635Z AUTO 20005KT 10SM CLR M02/M02 A2984 RMK AO2
KDTL 201615Z AUTO 18003KT 10SM CLR M02/M02 A2983 RMK AO2
KDTL 201555Z AUTO 18003KT 10SM CLR M03/M03 A2983 RMK AO2
KDTL 201535Z AUTO 00000KT 10SM CLR M03/M03 A2984 RMK AO2
KDTL 201515Z AUTO 22003KT 10SM CLR M03/M03 A2983 RMK AO2
KDTL 201455Z AUTO 00000KT 10SM CLR M03/M04 A2981 RMK AO2
KDTL 201435Z AUTO 00000KT 10SM CLR M03/M03 A2980 RMK AO2
KDTL 201415Z AUTO 00000KT 10SM CLR M03/M03 A2980 RMK AO2
KDTL 201355Z AUTO 24003KT 10SM CLR M03/M03 A2979 RMK AO2
KDTL 201335Z AUTO 24004KT 10SM CLR M03/M03 A2979 RMK AO2
KDTL 201315Z AUTO 22004KT 10SM CLR M04/M04 A2978 RMK AO2
KDTL 201255Z AUTO 00000KT 10SM CLR M04/M05 A2978 RMK AO2
KDTL 201235Z AUTO 20005KT 10SM CLR M04/M04 A2977 RMK AO2
KDTL 201215Z AUTO 20006KT 10SM CLR M05/M05 A2977 RMK AO2
KDTL 201155Z AUTO 20004KT 10SM CLR M04/M05 A2977 RMK AO2
KDTL 201135Z AUTO 00000KT 7SM CLR M04/M05 A2976 RMK AO2
KDTL 201115Z AUTO 21004KT 7SM CLR M05/M05 A2976 RMK AO2
KDTL 201055Z AUTO 21004KT 5SM BR CLR M05/M05 A2976 RMK AO2
KDTL 201035Z AUTO 20004KT 1 3/4SM BR VV007 M05/M05 A2975 RMK AO2
KDTL 201015Z AUTO 20005KT 1 1/2SM BR VV007 M07/M07 A2974 RMK AO2 VIS 1/2V5
KDTL 200955Z AUTO 17003KT 3/4SM BR VV005 M04/M05 A2974 RMK AO2
KDTL 200935Z AUTO 19004KT 3/4SM BR VV005 M05/M05 A2975 RMK AO2
KDTL 200915Z AUTO 18004KT 3SM BR CLR M05/M06 A2974 RMK AO2
KDTL 200855Z AUTO 17005KT 3/4SM BR VV005 M05/M05 A2974 RMK AO2 VIS 1/2V5
KDTL 200835Z AUTO 00000KT 7SM CLR M03/M04 A2973 RMK AO2
KDTL 200815Z AUTO 00000KT 10SM CLR M02/M03 A2972 RMK AO2
KDTL 200755Z AUTO 00000KT 2 1/2SM BR CLR M05/M06 A2972 RMK AO2 VIS 3/4V5
KDTL 200735Z AUTO 00000KT 10SM CLR M01/M03 A2971 RMK AO2
KDTL 200715Z AUTO 00000KT 10SM CLR 00/M02 A2971 RMK AO2
KDTL 200655Z AUTO 30003KT 10SM CLR 00/M02 A2970 RMK AO2
KDTL 200635Z AUTO 00000KT 10SM CLR 00/M02 A2970 RMK AO2
KDTL 200615Z AUTO 00000KT 10SM CLR 00/M02 A2970 RMK AO2
KDTL 200555Z AUTO 29006KT 10SM CLR 00/M01 A2970 RMK AO2
KDTL 200535Z AUTO 28006KT 10SM CLR 00/M01 A2970 RMK AO2
KDTL 200515Z AUTO 29008KT 10SM CLR 01/M01 A2969 RMK AO2
KDTL 200455Z AUTO 29009KT 10SM CLR 00/M01 A2969 RMK AO2
KDTL 200435Z AUTO 29009KT 10SM CLR 01/M01 A2968 RMK AO2
KDTL 200416Z AUTO 28009KT 10SM CLR 01/M01 A2968 RMK AO2
KDTL 200355Z AUTO 28009KT 10SM CLR 01/M01 A2967 RMK AO2
KDTL 200335Z AUTO 28008KT 10SM CLR 00/M01 A2966 RMK AO2
KDTL 200315Z AUTO 27008KT 10SM CLR 01/M01 A2965 RMK AO2
KDTL 200255Z AUTO 28009KT 10SM CLR 01/M01 A2965 RMK AO2
KDTL 200235Z AUTO 27008KT 10SM CLR 01/M01 A2964 RMK AO2
KDTL 200215Z AUTO 27007KT 10SM CLR 01/M01 A2963 RMK AO2
KDTL 200155Z AUTO 27008KT 10SM CLR 01/00 A2962 RMK AO2
KDTL 200135Z AUTO 28006KT 10SM CLR 01/00 A2961 RMK AO2
KDTL 200115Z AUTO 28008KT 10SM CLR 02/00 A2960 RMK AO2
KDTL 200055Z AUTO 29009KT 10SM CLR 01/00 A2959 RMK AO2
KDTL 200035Z AUTO 29009KT 10SM CLR 01/00 A2958 RMK AO2
KDTL 200015Z AUTO 29008KT 10SM CLR 01/00 A2959 RMK AO2
KDTL 192355Z AUTO 30009KT 10SM CLR 02/00 A2958 RMK AO2
KDTL 192335Z AUTO 30011KT 10SM CLR 02/00 A2956 RMK AO2
KDTL 192315Z AUTO 31009KT 10SM CLR 02/00 A2955 RMK AO2
KDTL 192255Z AUTO 31010KT 10SM CLR 02/00 A2955 RMK AO2
KDTL 192235Z AUTO 30011KT 10SM CLR 03/00 A2955 RMK AO2
KDTL 192215Z AUTO 29009KT 10SM CLR 03/00 A2953 RMK AO2
KDTL 192155Z AUTO 29011KT 10SM CLR 03/00 A2953 RMK AO2
KDTL 192135Z AUTO 29011G17KT 10SM CLR 03/00 A2952 RMK AO2
KDTL 192115Z AUTO 30016KT 10SM CLR 04/00 A2951 RMK AO2
KDTL 192055Z AUTO 31015G20KT 10SM CLR 04/00 A2950 RMK AO2
KDTL 192035Z AUTO 30016G20KT 10SM CLR 05/M01 A2950 RMK AO2
KDTL 192015Z AUTO 30014G19KT 10SM CLR 05/M01 A2949 RMK AO2
KDTL 191955Z AUTO 31010KT 10SM CLR 05/M01 A2948 RMK AO2
KDTL 191935Z AUTO 30007KT 10SM CLR 06/M01 A2949 RMK AO2
KDTL 191915Z AUTO 26004KT 10SM CLR 05/M01 A2948 RMK AO2
KDTL 191855Z AUTO 20004KT 10SM CLR 04/00 A2948 RMK AO2
KDTL 191835Z AUTO 00000KT 10SM CLR 04/00 A2949 RMK AO2
KDTL 191815Z AUTO 00000KT 10SM CLR 04/M01 A2950 RMK AO2
KDTL 191755Z AUTO 00000KT 10SM CLR 03/M01 A2949 RMK AO2
KDTL 191735Z AUTO 21003KT 10SM CLR 03/M01 A2949 RMK AO2
KDTL 191715Z AUTO 00000KT 10SM CLR 03/M01 A2949 RMK AO2
KDTL 191655Z AUTO 28003KT 10SM CLR 03/M01 A2951 RMK AO2
KDTL 191635Z AUTO 27003KT 10SM CLR 02/M02 A2951 RMK AO2
KDTL 191616Z AUTO 27006KT 10SM CLR 02/M02 A2951 RMK AO2
KDTL 191555Z AUTO 00000KT 10SM CLR 01/M02 A2949 RMK AO2
KDTL 191535Z AUTO 00000KT 10SM CLR 00/M03 A2949 RMK AO2
KDTL 191515Z AUTO 00000KT 10SM CLR M01/M03 A2948 RMK AO2
KDTL 191455Z AUTO 16006KT 10SM CLR 00/M03 A2946 RMK AO2